Time;durP1;ratioP1;P1;durP2;ratioP2;P2;SDS_P1;SDS_P2;PMS_P1;PMS_P2;Temp;Humidity;BMP_temperature;BMP_pressure;BME280_temperature;BME280_humidity;BME280_pressure;Samples;Min_cycle;Max_cycle;Signal;HPM_P1;HPM_P2
2022/12/13 00:01:49;;;;;;;15.73;11.00;;;0.20;1.00;;;;;;4993202;28;20509;-58
2022/12/13 00:04:15;;;;;;;17.53;11.80;;;0.20;1.00;;;;;;4987482;28;20450;-57
2022/12/13 00:06:41;;;;;;;15.70;11.00;;;0.30;1.00;;;;;;4989643;28;20447;-59
2022/12/13 00:09:07;;;;;;;16.97;11.40;;;0.30;1.00;;;;;;4988516;28;20498;-58
2022/12/13 00:11:33;;;;;;;16.97;11.70;;;0.10;1.00;;;;;;4990396;28;20195;-59
2022/12/13 00:13:59;;;;;;;15.70;10.60;;;0.20;1.00;;;;;;4989493;28;20509;-58
2022/12/13 00:16:25;;;;;;;16.33;11.93;;;0.20;1.00;;;;;;4987099;28;20452;-59
2022/12/13 00:18:57;;;;;;;18.33;11.00;;;0.10;1.00;;;;;;4992751;28;20234;-59
2022/12/13 00:21:26;;;;;;;17.00;10.80;;;0.10;1.00;;;;;;4995567;28;20531;-58
2022/12/13 00:23:52;;;;;;;22.07;13.07;;;0.10;1.00;;;;;;4990031;28;20440;-59
2022/12/13 00:26:23;;;;;;;13.67;9.33;;;0.10;1.00;;;;;;4986768;28;20458;-59
2022/12/13 00:28:50;;;;;;;16.30;11.10;;;0.10;1.00;;;;;;4995420;28;20315;-58
2022/12/13 00:31:17;;;;;;;17.90;12.00;;;0.10;1.00;;;;;;5000454;28;20856;-57
2022/12/13 00:33:43;;;;;;;16.83;11.97;;;0.10;1.00;;;;;;4985906;28;20937;-59
2022/12/13 00:36:09;;;;;;;18.73;12.27;;;0.10;1.00;;;;;;4986816;28;20478;-58
2022/12/13 00:38:36;;;;;;;16.70;10.97;;;0.10;1.00;;;;;;4986550;28;20501;-59
2022/12/13 00:41:30;;;;;;;16.37;11.50;;;0.10;1.00;;;;;;4986133;28;20949;-59
2022/12/13 00:43:56;;;;;;;14.73;10.40;;;0.30;1.00;;;;;;4981811;28;20583;-58
2022/12/13 00:46:22;;;;;;;16.03;10.67;;;0.30;1.00;;;;;;4984234;28;20776;-59
2022/12/13 00:48:50;;;;;;;14.87;9.57;;;0.20;1.00;;;;;;4970563;28;20561;-59
2022/12/13 00:51:15;;;;;;;14.77;9.57;;;0.20;1.00;;;;;;4988986;28;20250;-58
2022/12/13 00:53:41;;;;;;;15.17;10.10;;;0.10;1.00;;;;;;4984817;28;20442;-59
2022/12/13 00:56:18;;;;;;;12.53;8.50;;;0.10;1.00;;;;;;4988163;28;20197;-59
2022/12/13 00:58:44;;;;;;;13.30;8.90;;;0.10;1.00;;;;;;4989283;28;20204;-58
2022/12/13 01:01:12;;;;;;;15.00;9.83;;;0.10;1.00;;;;;;4985074;28;20472;-60
2022/12/13 01:03:39;;;;;;;14.37;10.37;;;0.20;1.00;;;;;;4983876;28;20197;-58
2022/12/13 01:06:30;;;;;;;17.10;11.50;;;0.10;1.00;;;;;;4990415;28;20658;-59
2022/12/13 01:08:55;;;;;;;14.43;10.63;;;0.20;1.00;;;;;;4986829;28;20475;-57
2022/12/13 01:11:21;;;;;;;15.50;11.07;;;0.20;1.00;;;;;;4988166;28;20538;-58
2022/12/13 01:13:46;;;;;;;16.13;10.17;;;0.30;1.00;;;;;;4984941;28;20176;-59
2022/12/13 01:16:12;;;;;;;14.63;10.27;;;0.30;1.00;;;;;;4982082;28;20655;-58
2022/12/13 01:18:39;;;;;;;13.30;9.10;;;0.30;1.00;;;;;;4985969;28;20243;-59
2022/12/13 01:21:09;;;;;;;15.70;10.00;;;0.20;1.00;;;;;;4985664;28;20450;-59
2022/12/13 01:23:35;;;;;;;12.97;9.53;;;0.20;1.00;;;;;;4985052;28;20458;-57
2022/12/13 01:26:03;;;;;;;17.97;9.83;;;0.20;1.00;;;;;;4990236;28;20431;-56
2022/12/13 01:28:29;;;;;;;11.37;9.00;;;0.20;1.00;;;;;;4986146;28;20769;-58
2022/12/13 01:31:00;;;;;;;13.73;10.03;;;0.20;1.00;;;;;;4987581;28;20543;-57
2022/12/13 01:33:26;;;;;;;13.70;9.80;;;0.10;1.00;;;;;;4985254;28;20769;-59
2022/12/13 01:35:52;;;;;;;13.43;9.60;;;0.10;1.00;;;;;;4989813;28;21051;-57
2022/12/13 01:38:18;;;;;;;16.60;9.73;;;0.10;1.00;;;;;;4984033;28;20537;-58
2022/12/13 01:40:57;;;;;;;17.40;10.87;;;0.10;1.00;;;;;;4986678;28;20448;-58
2022/12/13 01:43:42;;;;;;;16.20;10.20;;;0.10;1.00;;;;;;4985736;28;20439;-57
2022/12/13 01:46:09;;;;;;;14.00;9.90;;;0.10;1.00;;;;;;4978304;28;20443;-58
2022/12/13 01:48:40;;;;;;;14.63;9.93;;;0.20;1.00;;;;;;4987435;28;20486;-58
2022/12/13 01:51:09;;;;;;;15.87;11.10;;;0.10;1.00;;;;;;4984266;28;20823;-58
2022/12/13 01:53:37;;;;;;;13.43;10.90;;;0.00;1.00;;;;;;4987284;28;20447;-58
2022/12/13 01:56:11;;;;;;;18.00;11.73;;;0.20;1.00;;;;;;4987601;28;20470;-58
2022/12/13 01:58:38;;;;;;;18.27;11.23;;;0.30;1.00;;;;;;4984360;28;20455;-60
2022/12/13 02:01:04;;;;;;;16.43;11.23;;;0.30;1.00;;;;;;4984396;28;20458;-58
2022/12/13 02:03:30;;;;;;;13.53;9.63;;;0.20;1.00;;;;;;4987338;28;20463;-59
2022/12/13 02:06:06;;;;;;;14.20;9.43;;;0.20;1.00;;;;;;4989744;28;20451;-58
2022/12/13 02:08:33;;;;;;;15.40;10.77;;;0.30;1.00;;;;;;4986855;28;20887;-58
2022/12/13 02:11:00;;;;;;;16.40;11.20;;;0.20;1.00;;;;;;4991457;28;20789;-58
2022/12/13 02:13:26;;;;;;;13.77;9.90;;;0.10;1.00;;;;;;4990427;28;20451;-59
2022/12/13 02:16:20;;;;;;;16.87;12.10;;;0.30;1.00;;;;;;4986812;28;20510;-59
2022/12/13 02:18:55;;;;;;;19.53;10.90;;;0.50;1.00;;;;;;4989333;28;20215;-58
2022/12/13 02:21:53;;;;;;;15.63;10.90;;;0.50;1.00;;;;;;4991152;28;20500;-58
2022/12/13 02:24:46;;;;;;;16.20;9.73;;;0.40;1.00;;;;;;4987837;28;20433;-57
2022/12/13 02:27:23;;;;;;;13.73;9.50;;;0.30;1.00;;;;;;4974259;28;20460;-57
2022/12/13 02:30:16;;;;;;;14.67;10.10;;;0.30;1.00;;;;;;4988823;28;20471;-58
2022/12/13 02:32:54;;;;;;;13.57;10.00;;;0.20;1.00;;;;;;4987211;28;20447;-58
2022/12/13 02:35:23;;;;;;;15.07;9.60;;;0.20;1.00;;;;;;4991863;28;20443;-57
2022/12/13 02:38:13;;;;;;;14.33;10.57;;;0.20;1.00;;;;;;4989676;28;20443;-58
2022/12/13 02:40:42;;;;;;;13.40;9.10;;;0.30;1.00;;;;;;4986879;28;20457;-58
2022/12/13 02:43:44;;;;;;;15.27;10.23;;;0.40;1.00;;;;;;4991292;28;20446;-58
2022/12/13 02:46:11;;;;;;;14.33;9.90;;;0.30;1.00;;;;;;4945031;28;20956;-58
2022/12/13 02:48:39;;;;;;;11.77;8.63;;;0.40;1.00;;;;;;4989344;28;20492;-58
2022/12/13 02:51:08;;;;;;;12.50;10.60;;;0.40;1.00;;;;;;4985629;28;20957;-58
2022/12/13 02:53:35;;;;;;;15.77;10.60;;;0.40;1.00;;;;;;4991265;28;20439;-59
2022/12/13 02:56:01;;;;;;;12.50;9.63;;;0.40;1.00;;;;;;4991190;28;20455;-59
2022/12/13 02:58:31;;;;;;;12.77;9.37;;;0.50;1.00;;;;;;4990999;28;20517;-59
2022/12/13 03:01:13;;;;;;;15.47;9.63;;;0.40;1.00;;;;;;4991229;28;20297;-59
2022/12/13 03:03:55;;;;;;;14.83;10.80;;;0.40;1.00;;;;;;4991403;28;20803;-59
2022/12/13 03:06:30;;;;;;;13.70;9.40;;;0.40;1.00;;;;;;4990659;28;20448;-58
2022/12/13 03:09:33;;;;;;;14.87;9.33;;;0.40;1.00;;;;;;4989545;28;21053;-58
2022/12/13 03:14:58;;;;;;;11.63;8.90;;;0.60;1.00;;;;;;4990561;28;20488;-58
2022/12/13 03:17:25;;;;;;;12.50;8.33;;;0.50;1.00;;;;;;4985201;28;20492;-57
2022/12/13 03:19:52;;;;;;;13.70;8.80;;;0.50;1.00;;;;;;4991041;28;20451;-58
2022/12/13 03:22:18;;;;;;;14.20;9.03;;;0.30;1.00;;;;;;4989845;28;20458;-59
2022/12/13 03:24:44;;;;;;;13.40;9.80;;;0.40;1.00;;;;;;4990112;28;20460;-57
2022/12/13 03:27:10;;;;;;;12.77;9.13;;;0.30;1.00;;;;;;4987371;28;20482;-58
2022/12/13 03:29:36;;;;;;;16.13;10.20;;;0.30;1.00;;;;;;4986349;28;20563;-58
2022/12/13 03:32:02;;;;;;;14.27;9.70;;;0.30;1.00;;;;;;4990026;28;20439;-60
2022/12/13 03:34:28;;;;;;;16.53;10.47;;;0.30;1.00;;;;;;4987989;28;20185;-58
2022/12/13 03:36:53;;;;;;;16.23;9.83;;;0.40;1.00;;;;;;4979979;28;20455;-58
2022/12/13 03:39:19;;;;;;;15.10;10.10;;;0.30;1.00;;;;;;4978272;28;20201;-57
2022/12/13 03:41:45;;;;;;;14.97;10.30;;;0.10;1.00;;;;;;4990212;28;20893;-58
2022/12/13 03:44:11;;;;;;;14.53;9.90;;;0.10;1.00;;;;;;4987212;28;20514;-58
2022/12/13 03:46:36;;;;;;;16.27;10.47;;;0.10;1.00;;;;;;4984709;28;21507;-58
2022/12/13 03:49:02;;;;;;;15.50;10.87;;;0.10;1.00;;;;;;4989314;28;20233;-57
2022/12/13 03:51:28;;;;;;;15.13;11.60;;;0.20;1.00;;;;;;4989295;28;20192;-59
2022/12/13 03:53:54;;;;;;;15.00;10.27;;;1.00;1.00;;;;;;4987635;28;20188;-58
2022/12/13 03:56:19;;;;;;;15.10;10.63;;;0.10;1.00;;;;;;4988586;28;20176;-58
2022/12/13 03:58:45;;;;;;;16.80;9.77;;;0.20;1.00;;;;;;4989527;28;20205;-58
2022/12/13 04:01:13;;;;;;;13.33;9.80;;;0.10;1.00;;;;;;4987413;28;20193;-58
2022/12/13 04:03:40;;;;;;;14.80;10.30;;;0.00;1.00;;;;;;4983190;28;20199;-59
2022/12/13 04:06:07;;;;;;;16.60;10.40;;;-0.10;1.00;;;;;;4990160;28;20455;-59
2022/12/13 04:08:34;;;;;;;15.17;11.40;;;-0.20;1.00;;;;;;4980131;28;20459;-58
2022/12/13 04:13:31;;;;;;;16.03;10.40;;;-0.20;1.00;;;;;;4989027;28;21014;-58
2022/12/13 04:13:45;;;;;;;16.10;10.67;;;-0.20;1.00;;;;;;4987503;28;20476;-57
2022/12/13 04:16:11;;;;;;;13.87;9.87;;;-0.20;1.00;;;;;;4985186;28;20491;-60
2022/12/13 04:18:37;;;;;;;12.80;9.87;;;-0.30;1.00;;;;;;4985693;28;20246;-58
2022/12/13 04:21:02;;;;;;;18.73;9.60;;;-0.40;1.00;;;;;;4982373;28;20193;-57
2022/12/13 04:23:28;;;;;;;18.77;11.10;;;-0.50;1.00;;;;;;4989108;28;20242;-58
2022/12/13 04:25:53;;;;;;;15.37;10.60;;;-0.70;1.00;;;;;;4988226;28;20199;-58
2022/12/13 04:28:19;;;;;;;18.40;11.47;;;-0.80;1.00;;;;;;4985422;28;20646;-57
2022/12/13 04:30:44;;;;;;;16.27;9.97;;;-0.80;1.00;;;;;;4987319;28;20216;-57
2022/12/13 04:33:10;;;;;;;14.33;10.90;;;-0.80;1.00;;;;;;4984813;28;20199;-57
2022/12/13 04:35:36;;;;;;;19.97;11.47;;;-0.80;1.00;;;;;;4986503;28;20197;-57
2022/12/13 04:38:01;;;;;;;17.23;11.03;;;-0.80;1.00;;;;;;4985621;28;20192;-60
2022/12/13 04:40:27;;;;;;;17.57;11.40;;;-0.90;1.00;;;;;;4988672;28;20195;-58
2022/12/13 04:42:53;;;;;;;17.63;10.80;;;-0.90;1.00;;;;;;4985736;28;20220;-59
2022/12/13 04:45:20;;;;;;;16.50;11.07;;;-0.90;1.00;;;;;;4984020;28;20200;-58
2022/12/13 04:47:46;;;;;;;19.10;11.00;;;-0.90;1.00;;;;;;4984885;28;20483;-60
2022/12/13 04:50:12;;;;;;;17.40;12.07;;;-0.90;1.00;;;;;;4986891;28;20476;-59
2022/12/13 04:52:38;;;;;;;16.37;12.30;;;-0.90;1.00;;;;;;4984742;28;20191;-59
2022/12/13 04:55:05;;;;;;;16.07;11.63;;;-0.90;1.00;;;;;;4987016;28;20197;-57
2022/12/13 04:57:30;;;;;;;16.30;11.80;;;-0.90;1.00;;;;;;4983595;28;20526;-59
2022/12/13 04:59:56;;;;;;;16.90;11.83;;;-0.80;1.00;;;;;;4986953;28;20956;-58
2022/12/13 05:02:21;;;;;;;18.30;12.67;;;-0.90;1.00;;;;;;4986279;28;20360;-59
2022/12/13 05:04:47;;;;;;;16.13;11.30;;;-0.90;1.00;;;;;;4989493;28;20208;-58
2022/12/13 05:07:13;;;;;;;19.43;12.60;;;-0.80;1.00;;;;;;4986966;28;20274;-58
2022/12/13 05:09:38;;;;;;;17.50;12.40;;;-0.80;1.00;;;;;;4989628;28;20654;-59
2022/12/13 05:12:04;;;;;;;16.80;11.30;;;-0.80;1.00;;;;;;4988186;28;20213;-59
2022/12/13 05:14:31;;;;;;;19.23;12.43;;;-0.90;1.00;;;;;;4980843;28;20211;-57
2022/12/13 05:16:56;;;;;;;19.03;13.10;;;-0.90;1.00;;;;;;4987241;28;20741;-57
2022/12/13 05:19:22;;;;;;;19.00;12.20;;;-0.80;1.00;;;;;;4984987;28;20542;-56
2022/12/13 05:21:48;;;;;;;21.13;12.60;;;-0.80;1.00;;;;;;4986025;28;20195;-57
2022/12/13 05:24:14;;;;;;;18.37;11.97;;;-0.80;1.00;;;;;;4986692;28;20706;-57
2022/12/13 05:26:39;;;;;;;19.37;11.37;;;-0.70;1.00;;;;;;4986117;28;20447;-57
2022/12/13 05:29:05;;;;;;;17.60;12.17;;;-0.80;1.00;;;;;;4993834;28;20209;-57
2022/12/13 05:31:31;;;;;;;19.20;12.77;;;-0.80;1.00;;;;;;4989607;28;20726;-56
2022/12/13 05:33:56;;;;;;;20.80;13.20;;;-0.70;1.00;;;;;;4966401;28;20214;-57
2022/12/13 05:36:24;;;;;;;21.13;14.03;;;-0.70;1.00;;;;;;4994503;28;20697;-57
2022/12/13 05:38:51;;;;;;;22.10;14.00;;;-0.80;1.00;;;;;;4984579;28;20646;-57
2022/12/13 05:41:19;;;;;;;19.00;12.67;;;-0.70;1.00;;;;;;4991736;28;20511;-57
2022/12/13 05:43:45;;;;;;;24.07;13.67;;;-0.70;1.00;;;;;;4988151;28;20498;-58
2022/12/13 05:46:11;;;;;;;19.77;12.93;;;-0.70;1.00;;;;;;4993296;28;20453;-57
2022/12/13 05:48:37;;;;;;;19.87;12.80;;;-0.70;1.00;;;;;;4989593;28;20808;-58
2022/12/13 05:51:03;;;;;;;22.27;13.27;;;-0.70;1.00;;;;;;4990566;28;20505;-58
2022/12/13 05:53:29;;;;;;;20.27;12.97;;;-0.80;1.00;;;;;;4991421;28;20196;-57
2022/12/13 05:55:58;;;;;;;17.63;11.10;;;-0.80;1.00;;;;;;4990821;28;20364;-58
2022/12/13 05:58:24;;;;;;;18.37;13.07;;;-0.90;1.00;;;;;;4987547;28;20461;-58
2022/12/13 06:00:49;;;;;;;23.43;17.37;;;-0.80;1.00;;;;;;4991901;28;20969;-58
2022/12/13 06:03:15;;;;;;;23.53;16.73;;;-0.80;1.00;;;;;;4987460;28;20299;-59
2022/12/13 06:05:42;;;;;;;22.57;14.90;;;-1.00;1.00;;;;;;4989190;28;20611;-58
2022/12/13 06:08:08;;;;;;;27.90;15.90;;;-1.20;1.00;;;;;;4990199;28;20196;-59
2022/12/13 06:10:34;;;;;;;29.43;18.83;;;-1.20;1.00;;;;;;5005666;28;21030;-59
2022/12/13 06:12:59;;;;;;;26.20;16.60;;;-1.20;1.00;;;;;;4992579;28;20207;-58
2022/12/13 06:15:25;;;;;;;21.40;14.70;;;-1.20;1.00;;;;;;4995002;28;20283;-58
2022/12/13 06:17:51;;;;;;;21.27;13.30;;;-1.10;1.00;;;;;;4999936;28;20239;-58
2022/12/13 06:20:17;;;;;;;20.73;12.10;;;-1.20;1.00;;;;;;4987084;28;20657;-58
2022/12/13 06:22:42;;;;;;;22.00;13.20;;;-1.20;1.00;;;;;;4987560;28;20204;-58
2022/12/13 06:25:09;;;;;;;22.00;12.57;;;-1.30;1.00;;;;;;4990495;28;20462;-59
2022/12/13 06:27:34;;;;;;;18.40;12.30;;;-1.40;1.00;;;;;;4990273;28;20197;-57
2022/12/13 06:30:00;;;;;;;19.80;13.03;;;-1.50;1.00;;;;;;4987206;28;20552;-59
2022/12/13 06:32:26;;;;;;;21.77;13.40;;;-1.50;1.00;;;;;;4984561;28;20693;-58
2022/12/13 06:34:51;;;;;;;21.70;13.00;;;-1.50;1.00;;;;;;4987699;28;20243;-58
2022/12/13 06:37:17;;;;;;;18.60;11.23;;;-1.60;1.00;;;;;;4988399;28;20198;-58
2022/12/13 06:39:42;;;;;;;21.30;12.67;;;-1.80;1.00;;;;;;4989733;28;20192;-59
2022/12/13 06:42:15;;;;;;;19.80;12.23;;;-1.80;1.00;;;;;;4989617;28;20216;-58
2022/12/13 06:44:41;;;;;;;18.13;11.10;;;-1.90;1.00;;;;;;4991093;28;20207;-58
2022/12/13 06:47:06;;;;;;;17.80;12.73;;;-1.90;1.00;;;;;;4990561;28;20928;-59
2022/12/13 06:49:32;;;;;;;19.27;12.03;;;-1.90;1.00;;;;;;4990356;28;20667;-58
2022/12/13 06:51:59;;;;;;;18.30;12.33;;;-1.90;1.00;;;;;;4989419;28;21054;-57
2022/12/13 06:54:25;;;;;;;20.20;12.60;;;-1.90;1.00;;;;;;4991174;28;20455;-58
2022/12/13 06:56:50;;;;;;;16.20;11.70;;;-2.00;1.00;;;;;;4990205;28;20881;-57
2022/12/13 06:59:16;;;;;;;23.40;13.17;;;-2.00;1.00;;;;;;4992078;28;20250;-57
2022/12/13 07:01:41;;;;;;;17.80;11.00;;;-1.80;1.00;;;;;;4992062;28;20200;-58
2022/12/13 07:04:10;;;;;;;19.13;12.30;;;-1.80;1.00;;;;;;4990270;28;20198;-58
2022/12/13 07:06:36;;;;;;;20.30;12.67;;;-1.90;1.00;;;;;;4988921;28;20195;-58
2022/12/13 07:09:02;;;;;;;17.67;11.83;;;-2.10;1.00;;;;;;4991722;28;20471;-59
2022/12/13 07:11:32;;;;;;;18.57;11.77;;;-2.20;1.00;;;;;;4991806;28;20479;-59
2022/12/13 07:13:58;;;;;;;18.63;12.80;;;-2.30;1.00;;;;;;4990884;28;20509;-58
2022/12/13 07:16:24;;;;;;;15.93;10.73;;;-2.30;1.00;;;;;;4992448;28;20561;-58
2022/12/13 07:18:58;;;;;;;17.33;10.67;;;-2.30;1.00;;;;;;4991324;28;20698;-58
2022/12/13 07:21:23;;;;;;;19.30;11.17;;;-2.20;1.00;;;;;;4991751;28;20837;-59
2022/12/13 07:23:49;;;;;;;14.83;11.13;;;-2.20;1.00;;;;;;4988804;28;20466;-58
2022/12/13 07:26:16;;;;;;;19.67;12.03;;;-2.30;1.00;;;;;;4988269;28;20680;-58
2022/12/13 07:28:41;;;;;;;20.97;13.23;;;-2.20;1.00;;;;;;4985693;28;20968;-57
2022/12/13 07:31:08;;;;;;;20.57;12.10;;;-2.20;1.00;;;;;;4991042;28;20483;-58
2022/12/13 07:33:35;;;;;;;19.97;12.33;;;-2.10;1.00;;;;;;4987897;28;20199;-58
2022/12/13 07:36:15;;;;;;;20.07;12.03;;;-2.20;1.00;;;;;;4989708;28;20450;-58
2022/12/13 07:38:41;;;;;;;22.83;13.60;;;-2.20;1.00;;;;;;4986782;28;20517;-58
2022/12/13 07:41:07;;;;;;;19.10;12.57;;;-2.10;1.00;;;;;;4991393;28;20443;-57
2022/12/13 07:43:33;;;;;;;23.60;14.97;;;-2.00;1.00;;;;;;4987350;28;21070;-58
2022/12/13 07:46:05;;;;;;;19.50;12.40;;;-1.90;1.00;;;;;;4989462;28;20482;-59
2022/12/13 07:48:31;;;;;;;18.47;12.67;;;-1.70;1.00;;;;;;4988413;28;20484;-58
2022/12/13 07:51:02;;;;;;;19.20;11.00;;;-1.60;1.00;;;;;;4990768;28;20447;-58
2022/12/13 07:53:28;;;;;;;20.00;13.27;;;-1.60;1.00;;;;;;4986387;28;20436;-58
2022/12/13 07:55:54;;;;;;;17.67;12.83;;;-1.60;1.00;;;;;;4991073;28;20518;-58
2022/12/13 07:58:19;;;;;;;23.47;13.57;;;-1.60;1.00;;;;;;4987581;28;20247;-58
2022/12/13 08:00:46;;;;;;;20.13;13.83;;;-1.60;1.00;;;;;;4986451;28;20451;-59
2022/12/13 08:03:12;;;;;;;19.23;13.00;;;-1.50;1.00;;;;;;4985838;28;20264;-59
2022/12/13 08:05:38;;;;;;;24.57;13.97;;;-1.40;1.00;;;;;;4987078;28;20451;-60
2022/12/13 08:08:06;;;;;;;22.30;13.30;;;-1.30;1.00;;;;;;4989805;28;20501;-58
2022/12/13 08:10:31;;;;;;;20.50;13.10;;;-1.30;1.00;;;;;;4988587;28;20223;-59
2022/12/13 08:12:58;;;;;;;21.03;12.93;;;-1.30;1.00;;;;;;4964781;28;20501;-58
2022/12/13 08:15:24;;;;;;;19.77;13.40;;;-1.30;1.00;;;;;;4986852;28;20284;-59
2022/12/13 08:17:50;;;;;;;19.90;11.90;;;-1.30;1.00;;;;;;4985229;28;20591;-59
2022/12/13 08:20:16;;;;;;;23.90;13.23;;;-1.20;1.00;;;;;;4990549;28;20474;-59
2022/12/13 08:22:42;;;;;;;20.63;13.87;;;-1.20;1.00;;;;;;4991037;28;20968;-58
2022/12/13 08:25:08;;;;;;;19.93;12.03;;;-1.20;1.00;;;;;;4985786;28;20180;-58
2022/12/13 08:27:34;;;;;;;20.57;13.00;;;-1.20;1.00;;;;;;4988380;28;20454;-58
2022/12/13 08:29:59;;;;;;;21.60;12.00;;;-1.20;1.00;;;;;;4988448;28;20472;-60
2022/12/13 08:32:25;;;;;;;21.70;13.10;;;-1.10;1.00;;;;;;4988410;28;20277;-59
2022/12/13 08:34:51;;;;;;;14.63;11.40;;;-1.10;1.00;;;;;;4988819;28;20533;-59
2022/12/13 08:37:17;;;;;;;19.23;11.50;;;-1.10;1.00;;;;;;4988202;28;20700;-59
2022/12/13 08:39:46;;;;;;;16.57;11.50;;;-1.10;1.00;;;;;;4989140;28;20198;-59
2022/12/13 08:42:14;;;;;;;18.50;12.63;;;-0.90;1.00;;;;;;4988639;28;20192;-59
2022/12/13 08:44:39;;;;;;;21.17;11.60;;;-0.90;1.00;;;;;;4988255;28;20484;-59
2022/12/13 08:47:05;;;;;;;18.73;12.00;;;-0.80;1.00;;;;;;4989480;28;20447;-60
2022/12/13 08:49:31;;;;;;;19.83;11.90;;;-0.80;1.00;;;;;;4989656;28;20238;-60
2022/12/13 08:51:57;;;;;;;18.63;12.57;;;-0.80;1.00;;;;;;4992968;28;20287;-60
2022/12/13 08:54:22;;;;;;;17.73;11.63;;;-0.90;1.00;;;;;;4990189;28;20807;-59
2022/12/13 08:56:48;;;;;;;19.60;12.37;;;-1.00;1.00;;;;;;4990055;28;20247;-60
2022/12/13 08:59:14;;;;;;;18.27;12.67;;;-1.10;1.00;;;;;;5005040;28;20238;-59
2022/12/13 09:01:39;;;;;;;21.67;13.53;;;-1.10;1.00;;;;;;4993217;28;20516;-60
2022/12/13 09:04:05;;;;;;;19.77;12.63;;;-0.90;1.00;;;;;;4998981;28;20597;-58
2022/12/13 09:06:31;;;;;;;18.97;12.50;;;-0.90;1.00;;;;;;5009764;28;20280;-60
2022/12/13 09:08:56;;;;;;;23.80;11.80;;;-1.00;1.00;;;;;;4998432;28;20594;-59
2022/12/13 09:11:22;;;;;;;18.33;11.83;;;-1.00;1.00;;;;;;4989810;28;20183;-59
2022/12/13 09:13:48;;;;;;;19.13;12.13;;;-1.00;1.00;;;;;;4972331;28;20185;-60
2022/12/13 09:16:18;;;;;;;20.00;12.60;;;-0.90;1.00;;;;;;4998184;28;20188;-59
2022/12/13 09:18:44;;;;;;;14.37;10.53;;;-0.90;1.00;;;;;;4986043;28;20428;-60
2022/12/13 09:21:13;;;;;;;16.00;11.67;;;-0.90;1.00;;;;;;4987853;28;20447;-59
2022/12/13 09:23:40;;;;;;;18.30;12.63;;;-0.90;1.00;;;;;;4971995;28;20552;-61
2022/12/13 09:26:07;;;;;;;18.40;11.70;;;-1.00;1.00;;;;;;4989791;28;20440;-59
2022/12/13 09:28:35;;;;;;;17.37;11.80;;;-1.00;1.00;;;;;;4988285;28;20503;-60
2022/12/13 09:31:12;;;;;;;17.47;11.03;;;-0.90;1.00;;;;;;4987901;28;20513;-61
2022/12/13 09:33:38;;;;;;;17.80;11.70;;;-0.80;1.00;;;;;;4983936;28;20509;-62
2022/12/13 09:36:06;;;;;;;13.40;9.83;;;-0.90;1.00;;;;;;4986343;28;20498;-60
2022/12/13 09:38:35;;;;;;;15.67;11.00;;;-0.80;1.00;;;;;;4988099;28;20255;-60
2022/12/13 09:41:29;;;;;;;18.33;11.80;;;-0.90;1.00;;;;;;4986960;28;20879;-60
2022/12/13 09:44:04;;;;;;;30.97;13.10;;;-0.80;1.00;;;;;;4982162;28;21191;-58
2022/12/13 09:46:36;;;;;;;21.83;12.13;;;-0.70;1.00;;;;;;4984200;28;20420;-59
2022/12/13 09:49:06;;;;;;;18.83;13.00;;;-0.70;1.00;;;;;;4984066;28;20509;-58
2022/12/13 09:51:33;;;;;;;21.33;11.50;;;-0.60;1.00;;;;;;4987041;28;20447;-59
2022/12/13 09:53:59;;;;;;;16.57;12.27;;;-0.60;1.00;;;;;;4987235;28;20458;-60
2022/12/13 09:56:26;;;;;;;19.40;13.60;;;-0.60;1.00;;;;;;4984744;28;20448;-58
2022/12/13 09:58:55;;;;;;;18.97;12.63;;;-0.60;1.00;;;;;;4986384;28;20494;-59
2022/12/13 10:01:21;;;;;;;21.50;13.00;;;-0.40;1.00;;;;;;4989627;28;20444;-58
2022/12/13 10:03:49;;;;;;;22.23;13.03;;;-0.50;1.00;;;;;;4989721;28;20928;-58
2022/12/13 10:06:22;;;;;;;16.70;12.23;;;-0.50;1.00;;;;;;4989546;28;20443;-59
2022/12/13 10:08:56;;;;;;;16.13;11.57;;;-0.50;1.00;;;;;;4989416;28;20427;-59
2022/12/13 10:11:22;;;;;;;18.50;11.77;;;-0.50;1.00;;;;;;4987937;28;20439;-59
2022/12/13 10:13:59;;;;;;;17.03;10.97;;;-0.30;1.00;;;;;;4988669;28;20410;-59
2022/12/13 10:16:34;;;;;;;16.13;10.70;;;-0.20;1.00;;;;;;4989492;28;20207;-59
2022/12/13 10:19:33;;;;;;;15.73;10.33;;;-0.20;1.00;;;;;;4989766;28;20469;-59
2022/12/13 10:21:59;;;;;;;16.40;11.07;;;-0.20;1.00;;;;;;4989629;28;20440;-59
2022/12/13 10:24:29;;;;;;;16.47;9.47;;;-0.20;1.00;;;;;;4988352;28;20543;-59
2022/12/13 10:27:17;;;;;;;14.90;10.97;;;-0.10;1.00;;;;;;4990540;28;20435;-60
2022/12/13 10:30:11;;;;;;;14.50;10.07;;;1.30;1.00;;;;;;4992313;28;20462;-58
2022/12/13 10:32:51;;;;;;;16.33;10.20;;;0.00;1.00;;;;;;4989078;28;20829;-60
2022/12/13 10:35:33;;;;;;;15.33;10.10;;;0.00;1.00;;;;;;4992591;28;20450;-60
2022/12/13 10:38:25;;;;;;;17.20;11.60;;;0.00;1.00;;;;;;4992559;28;20442;-59
2022/12/13 10:40:51;;;;;;;14.80;9.83;;;0.10;1.00;;;;;;4992591;28;21287;-60
2022/12/13 10:43:25;;;;;;;18.80;11.40;;;0.00;1.00;;;;;;4994402;28;20726;-59
2022/12/13 10:46:00;;;;;;;13.67;9.37;;;0.10;1.00;;;;;;4994934;28;20459;-60
2022/12/13 10:48:35;;;;;;;12.53;10.13;;;0.10;1.00;;;;;;4974447;28;21007;-60
2022/12/13 10:51:09;;;;;;;14.67;9.70;;;0.20;1.00;;;;;;4992035;28;20565;-60
2022/12/13 10:53:45;;;;;;;16.43;10.20;;;0.20;1.00;;;;;;4991526;28;20457;-59
2022/12/13 10:56:11;;;;;;;16.50;10.63;;;0.30;1.00;;;;;;4990417;28;20877;-59
2022/12/13 10:58:42;;;;;;;14.50;9.87;;;0.40;1.00;;;;;;4992036;28;20538;-58
2022/12/13 11:01:22;;;;;;;14.50;9.67;;;0.40;1.00;;;;;;4998857;28;20819;-60
2022/12/13 11:04:03;;;;;;;16.20;9.67;;;0.40;1.00;;;;;;5011649;28;20775;-59
2022/12/13 11:06:44;;;;;;;12.77;9.00;;;0.50;1.00;;;;;;4993914;28;20450;-59
2022/12/13 11:09:26;;;;;;;12.87;9.77;;;0.60;1.00;;;;;;4991404;28;21033;-59
2022/12/13 11:11:53;;;;;;;15.50;9.70;;;0.60;1.00;;;;;;4974200;28;20500;-59
2022/12/13 11:14:31;;;;;;;11.47;9.20;;;0.70;1.00;;;;;;4991808;28;20656;-60
2022/12/13 11:17:04;;;;;;;12.10;9.03;;;0.70;1.00;;;;;;4992172;28;20440;-59
2022/12/13 11:19:45;;;;;;;17.60;9.50;;;0.70;1.00;;;;;;4992095;28;20432;-60
2022/12/13 11:22:39;;;;;;;13.50;9.50;;;0.80;1.00;;;;;;4991740;28;20919;-59
2022/12/13 11:25:25;;;;;;;17.57;9.87;;;0.90;1.00;;;;;;4989623;28;20456;-59
2022/12/13 11:28:15;;;;;;;12.70;10.00;;;0.80;1.00;;;;;;4991540;28;20434;-59
2022/12/13 11:30:53;;;;;;;15.70;10.13;;;0.90;1.00;;;;;;5002200;28;20965;-58
2022/12/13 11:33:31;;;;;;;13.47;8.90;;;0.90;1.00;;;;;;4991139;28;20456;-58
2022/12/13 11:36:21;;;;;;;11.60;8.70;;;0.90;1.00;;;;;;4991776;28;20963;-60
2022/12/13 11:38:47;;;;;;;12.93;8.80;;;1.10;1.00;;;;;;4991605;28;20501;-60
2022/12/13 11:41:48;;;;;;;14.63;9.87;;;1.20;1.00;;;;;;4991399;28;20478;-59
2022/12/13 11:44:39;;;;;;;17.90;9.93;;;1.10;1.00;;;;;;4929076;28;20439;-57
2022/12/13 11:47:12;;;;;;;11.40;9.03;;;1.10;1.00;;;;;;4989085;28;20446;-59
2022/12/13 11:49:39;;;;;;;13.03;9.77;;;1.10;1.00;;;;;;4991158;28;20474;-60
2022/12/13 11:52:19;;;;;;;16.87;10.57;;;1.10;1.00;;;;;;4996576;28;20449;-58
2022/12/13 11:55:02;;;;;;;14.20;10.00;;;1.10;1.00;;;;;;4996307;28;20491;-59
2022/12/13 11:58:03;;;;;;;13.77;9.00;;;1.20;1.00;;;;;;4991330;28;20782;-60
2022/12/13 12:00:44;;;;;;;11.07;8.60;;;1.20;1.00;;;;;;4908712;28;20802;-60
2022/12/13 12:03:44;;;;;;;15.43;8.90;;;1.30;1.00;;;;;;4990515;28;20416;-60
2022/12/13 12:06:20;;;;;;;11.40;7.97;;;1.30;1.00;;;;;;4990852;28;20527;-59
2022/12/13 12:08:55;;;;;;;12.10;8.67;;;1.40;1.00;;;;;;4973071;28;20774;-58
2022/12/13 12:12:11;;;;;;;12.60;9.37;;;1.40;1.00;;;;;;4988523;28;20443;-59
2022/12/13 12:15:01;;;;;;;12.20;9.03;;;1.40;1.00;;;;;;4936880;28;21010;-58
2022/12/13 12:17:27;;;;;;;11.20;8.53;;;1.50;1.00;;;;;;4989663;28;20514;-59
2022/12/13 12:19:56;;;;;;;12.30;8.67;;;1.50;1.00;;;;;;4990929;28;20442;-60
2022/12/13 12:22:36;;;;;;;10.30;6.90;;;1.50;1.00;;;;;;4990455;28;20448;-60
2022/12/13 12:25:12;;;;;;;11.30;7.90;;;1.60;1.00;;;;;;4989009;28;20546;-61
2022/12/13 12:27:40;;;;;;;13.23;7.53;;;1.50;1.00;;;;;;4990739;28;20446;-60
2022/12/13 12:30:30;;;;;;;9.97;7.07;;;1.50;1.00;;;;;;4990608;28;20474;-59
2022/12/13 12:33:05;;;;;;;11.90;8.30;;;1.40;1.00;;;;;;5002465;28;20430;-60
2022/12/13 12:35:53;;;;;;;9.87;7.77;;;1.50;1.00;;;;;;5009626;28;20417;-59
2022/12/13 12:38:21;;;;;;;11.00;7.60;;;1.50;1.00;;;;;;5010096;28;20750;-60
2022/12/13 12:40:47;;;;;;;10.30;8.10;;;1.50;1.00;;;;;;4990955;28;20475;-61
2022/12/13 12:43:24;;;;;;;11.33;7.13;;;1.60;1.00;;;;;;4990333;28;20441;-59
2022/12/13 12:46:11;;;;;;;14.30;8.03;;;1.50;1.00;;;;;;4990070;28;20196;-59
2022/12/13 12:48:55;;;;;;;11.13;7.63;;;1.50;1.00;;;;;;4989840;28;20474;-59
2022/12/13 12:51:58;;;;;;;11.67;8.33;;;1.40;1.00;;;;;;4972476;28;20443;-59
2022/12/13 12:54:40;;;;;;;12.07;8.20;;;1.40;1.00;;;;;;4989126;28;20449;-60
2022/12/13 12:57:17;;;;;;;12.70;8.70;;;2.00;1.00;;;;;;4990126;28;20462;-59
2022/12/13 13:00:14;;;;;;;9.33;6.67;;;1.40;1.00;;;;;;4990137;28;20556;-60
2022/12/13 13:02:58;;;;;;;13.17;8.20;;;1.30;1.00;;;;;;4990033;28;20504;-59
2022/12/13 13:05:32;;;;;;;10.70;8.20;;;1.30;1.00;;;;;;4990045;28;20438;-60
2022/12/13 13:08:05;;;;;;;9.93;8.10;;;1.20;1.00;;;;;;4990230;28;20926;-59